createdAt,value
2022-08-04T00:00:14.024Z,97.70
2022-08-04T00:04:04.129Z,97.90
2022-08-04T00:08:14.411Z,98.10
2022-08-04T00:12:01.432Z,98.20
2022-08-04T00:15:44.313Z,98.50
2022-08-04T00:19:32.963Z,98.70
2022-08-04T00:23:16.990Z,98.80
2022-08-04T00:26:59.839Z,98.80
2022-08-04T00:30:42.757Z,99.00
2022-08-04T00:34:27.066Z,99.20
2022-08-04T00:38:10.226Z,99.20
2022-08-04T00:42:25.533Z,99.40
2022-08-04T00:46:28.887Z,99.30
2022-08-04T00:50:23.970Z,99.30
2022-08-04T00:54:34.396Z,99.90
2022-08-04T00:58:21.890Z,99.80
2022-08-04T01:02:31.351Z,99.90
2022-08-04T01:06:32.999Z,99.90
2022-08-04T01:10:24.024Z,99.90
2022-08-04T01:14:08.739Z,99.90
2022-08-04T01:18:06.273Z,99.90
2022-08-04T01:21:54.200Z,99.90
2022-08-04T01:26:02.908Z,99.90
2022-08-04T01:30:05.295Z,99.90
2022-08-04T01:34:04.051Z,99.90
2022-08-04T01:37:56.127Z,99.90
2022-08-04T01:41:38.179Z,99.90
2022-08-04T01:45:23.757Z,99.90
2022-08-04T01:49:07.607Z,99.90
2022-08-04T01:52:53.879Z,99.90
2022-08-04T01:56:36.287Z,99.90
2022-08-04T02:00:21.457Z,99.90
2022-08-04T02:04:19.752Z,99.90
2022-08-04T02:08:30.025Z,99.90
2022-08-04T02:12:46.628Z,99.90
2022-08-04T02:16:43.967Z,99.90
2022-08-04T02:20:38.125Z,99.90
2022-08-04T02:24:25.703Z,99.90
2022-08-04T02:28:40.221Z,99.90
2022-08-04T02:32:29.201Z,99.90
2022-08-04T02:36:41.929Z,99.90
2022-08-04T02:40:26.635Z,99.90
2022-08-04T02:44:10.958Z,99.90
2022-08-04T02:48:29.207Z,99.90
2022-08-04T02:51:58.438Z,99.90
2022-08-04T02:55:50.521Z,99.90
2022-08-04T02:59:44.086Z,99.90
2022-08-04T03:03:31.551Z,99.90
2022-08-04T03:07:51.518Z,99.90
2022-08-04T03:11:51.932Z,99.90
2022-08-04T03:15:48.993Z,99.90
2022-08-04T03:19:33.636Z,99.90
2022-08-04T03:23:46.355Z,99.90
2022-08-04T03:28:04.997Z,99.90
2022-08-04T03:32:24.251Z,99.90
2022-08-04T03:36:31.669Z,99.90
2022-08-04T03:40:22.749Z,99.90
2022-08-04T03:44:19.421Z,99.90
2022-08-04T03:48:09.994Z,99.90
2022-08-04T03:52:51.664Z,99.90
2022-08-04T03:56:51.029Z,99.90
2022-08-04T04:01:11.618Z,99.90
2022-08-04T04:05:04.072Z,99.90
2022-08-04T04:08:58.649Z,99.90
2022-08-04T04:13:10.244Z,99.90
2022-08-04T04:17:29.513Z,99.90
2022-08-04T04:21:35.749Z,99.90
2022-08-04T04:25:42.873Z,99.90
2022-08-04T04:29:50.883Z,99.90
2022-08-04T04:33:38.876Z,99.90
2022-08-04T04:37:34.025Z,99.90
2022-08-04T04:41:26.460Z,99.90
2022-08-04T04:45:26.513Z,99.90
2022-08-04T04:49:14.246Z,99.90
2022-08-04T04:53:33.347Z,99.90
2022-08-04T04:57:17.895Z,99.90
2022-08-04T05:01:17.508Z,99.90
2022-08-04T05:05:02.234Z,99.90
2022-08-04T05:09:06.832Z,99.90
2022-08-04T05:14:37.119Z,99.90
2022-08-04T05:17:50.089Z,99.90
2022-08-04T05:21:45.035Z,99.90
2022-08-04T05:25:40.952Z,99.90
2022-08-04T05:29:35.413Z,99.90
2022-08-04T05:33:29.089Z,99.90
2022-08-04T05:37:17.551Z,99.90
2022-08-04T05:41:00.286Z,99.90
2022-08-04T05:44:47.589Z,99.90
2022-08-04T05:48:34.239Z,99.90
2022-08-04T05:52:17.218Z,99.90
2022-08-04T05:56:01.943Z,99.90
2022-08-04T05:59:46.827Z,99.90
2022-08-04T06:03:30.703Z,99.90
2022-08-04T06:07:14.299Z,99.90
2022-08-04T06:11:02.153Z,99.90
2022-08-04T06:14:47.210Z,99.90
2022-08-04T06:19:56.852Z,99.90
2022-08-04T06:22:34.367Z,99.90
2022-08-04T06:26:19.947Z,99.90
2022-08-04T06:30:03.037Z,99.90
2022-08-04T06:33:54.353Z,99.90
2022-08-04T06:37:41.847Z,99.90
2022-08-04T06:41:25.492Z,99.90
2022-08-04T06:45:10.017Z,99.90
2022-08-04T06:48:52.841Z,99.90
2022-08-04T06:52:34.882Z,99.90
2022-08-04T06:56:19.144Z,99.90
2022-08-04T07:00:11.419Z,99.90
2022-08-04T07:03:53.567Z,99.90
2022-08-04T07:07:37.162Z,99.90
2022-08-04T07:11:39.157Z,99.60
2022-08-04T07:15:27.272Z,99.10
2022-08-04T07:19:09.993Z,98.80
2022-08-04T07:22:53.747Z,98.30
2022-08-04T07:26:35.762Z,97.80
2022-08-04T07:30:21.825Z,97.50
2022-08-04T07:34:20.749Z,97.20
2022-08-04T07:38:04.282Z,97.00
2022-08-04T07:41:53.039Z,96.60
2022-08-04T07:45:35.088Z,96.20
2022-08-04T07:49:56.301Z,95.70
2022-08-04T07:53:55.260Z,95.00
2022-08-04T07:57:41.046Z,94.90
2022-08-04T08:01:25.033Z,94.50
2022-08-04T08:05:12.946Z,94.40
2022-08-04T08:08:59.485Z,94.30
2022-08-04T08:12:51.147Z,93.70
2022-08-04T08:16:34.727Z,93.60
2022-08-04T08:20:29.561Z,93.80
2022-08-04T08:24:14.174Z,93.80
2022-08-04T08:27:56.839Z,94.10
2022-08-04T08:31:57.555Z,93.90
2022-08-04T08:35:53.238Z,94.10
2022-08-04T08:40:10.567Z,93.90
2022-08-04T08:44:19.117Z,94.30
2022-08-04T08:48:36.317Z,93.80
2022-08-04T08:52:57.547Z,93.60
2022-08-04T08:57:28.172Z,93.50
2022-08-04T09:01:28.333Z,93.60
2022-08-04T09:05:46.310Z,92.20
2022-08-04T09:09:49.780Z,92.00
2022-08-04T09:13:41.830Z,92.00
2022-08-04T09:17:30.814Z,91.60
2022-08-04T09:21:40.334Z,91.50
2022-08-04T09:25:31.359Z,91.50
2022-08-04T09:29:40.417Z,90.70
2022-08-04T09:33:55.121Z,91.40
2022-08-04T09:37:46.769Z,91.00
2022-08-04T09:41:59.727Z,90.10
2022-08-04T09:46:09.200Z,90.70
2022-08-04T09:50:14.630Z,88.50
2022-08-04T09:54:37.500Z,89.10
2022-08-04T09:58:37.852Z,89.20
2022-08-04T10:02:23.976Z,85.50
2022-08-04T10:06:12.000Z,84.20
2022-08-04T10:10:25.008Z,82.40
2022-08-04T10:14:30.767Z,84.00
2022-08-04T10:18:33.600Z,81.00
2022-08-04T10:22:28.147Z,77.40
2022-08-04T10:26:31.583Z,74.40
2022-08-04T10:30:16.832Z,74.00
2022-08-04T10:34:13.089Z,67.10
2022-08-04T10:38:02.422Z,65.40
2022-08-04T10:42:01.413Z,72.40
2022-08-04T10:46:07.441Z,67.40
2022-08-04T10:49:58.509Z,63.10
2022-08-04T10:53:43.422Z,62.90
2022-08-04T10:57:46.839Z,58.40
2022-08-04T11:02:00.894Z,60.40
2022-08-04T11:05:46.916Z,55.70
2022-08-04T11:09:30.524Z,55.10
2022-08-04T11:13:22.055Z,55.60
2022-08-04T11:17:21.179Z,56.30
2022-08-04T11:21:12.745Z,55.40
2022-08-04T11:25:36.244Z,56.80
2022-08-04T11:29:44.737Z,58.80
2022-08-04T11:33:55.508Z,55.10
2022-08-04T11:37:46.741Z,52.30
2022-08-04T11:41:47.721Z,50.20
2022-08-04T11:45:45.580Z,53.30
2022-08-04T11:49:56.496Z,51.00
2022-08-04T11:53:42.348Z,53.10
2022-08-04T11:57:35.855Z,50.40
2022-08-04T12:01:55.068Z,51.30
2022-08-04T12:06:00.186Z,54.10
2022-08-04T12:09:56.408Z,53.60
2022-08-04T12:14:05.287Z,53.50
2022-08-04T12:18:03.559Z,54.00
2022-08-04T12:22:00.028Z,55.20
2022-08-04T12:25:46.803Z,54.90
2022-08-04T12:29:33.475Z,56.20
2022-08-04T12:33:20.810Z,55.80
2022-08-04T12:37:10.708Z,54.90
2022-08-04T12:40:57.015Z,53.30
2022-08-04T12:44:41.351Z,52.60
2022-08-04T12:48:25.439Z,52.10
2022-08-04T12:52:11.649Z,52.10
2022-08-04T12:56:02.116Z,51.70
2022-08-04T12:59:46.841Z,50.80
2022-08-04T13:03:52.805Z,48.90
2022-08-04T13:07:44.075Z,49.60
2022-08-04T13:11:26.444Z,50.90
2022-08-04T13:15:18.520Z,48.90
2022-08-04T13:19:05.365Z,47.20
2022-08-04T13:22:47.646Z,46.60
2022-08-04T13:26:44.889Z,45.50
2022-08-04T13:30:33.379Z,45.50
2022-08-04T13:34:19.141Z,45.50
2022-08-04T13:38:02.368Z,45.50
2022-08-04T13:41:53.771Z,44.80
2022-08-04T13:45:41.900Z,44.90
2022-08-04T13:49:38.140Z,45.00
2022-08-04T13:53:31.002Z,45.50
2022-08-04T13:57:19.691Z,46.20
2022-08-04T14:01:05.954Z,46.80
2022-08-04T14:04:54.558Z,45.80
2022-08-04T14:08:58.047Z,47.70
2022-08-04T14:12:48.184Z,49.10
2022-08-04T14:16:30.115Z,50.00
2022-08-04T14:20:12.242Z,48.90
2022-08-04T14:23:56.595Z,48.40
2022-08-04T14:27:52.331Z,47.80
2022-08-04T14:31:34.597Z,47.80
2022-08-04T14:35:16.593Z,47.60
2022-08-04T14:39:00.433Z,47.90
2022-08-04T14:42:55.237Z,47.60
2022-08-04T14:46:55.969Z,47.50
2022-08-04T14:50:46.211Z,47.90
2022-08-04T14:54:35.829Z,48.20
2022-08-04T14:58:33.866Z,47.20
2022-08-04T15:02:19.078Z,47.90
2022-08-04T15:06:08.003Z,47.10
2022-08-04T15:09:53.707Z,47.80
2022-08-04T15:13:36.990Z,47.80
2022-08-04T15:17:29.708Z,47.80
2022-08-04T15:21:14.455Z,47.50
2022-08-04T15:24:56.478Z,47.30
2022-08-04T15:28:41.664Z,47.60
2022-08-04T15:32:24.834Z,47.50
2022-08-04T15:36:14.646Z,46.90
2022-08-04T15:40:06.848Z,46.60
2022-08-04T15:44:13.461Z,47.40
2022-08-04T15:48:04.205Z,48.30
2022-08-04T15:51:46.490Z,47.90
2022-08-04T15:55:38.485Z,48.10
2022-08-04T16:00:01.381Z,47.80
2022-08-04T16:03:58.695Z,48.60
2022-08-04T16:08:13.764Z,46.30
2022-08-04T16:11:56.046Z,48.10
2022-08-04T16:15:43.745Z,47.50
2022-08-04T16:19:44.901Z,48.30
2022-08-04T16:23:54.329Z,48.80
2022-08-04T16:27:43.565Z,48.60
2022-08-04T16:31:25.781Z,48.10
2022-08-04T16:35:22.278Z,48.60
2022-08-04T16:39:05.667Z,48.90
2022-08-04T16:42:50.673Z,48.80
2022-08-04T16:47:08.840Z,48.40
2022-08-04T16:51:03.217Z,48.60
2022-08-04T16:54:47.478Z,48.80
2022-08-04T16:58:36.787Z,47.80
2022-08-04T17:02:25.084Z,49.00
2022-08-04T17:06:13.232Z,48.50
2022-08-04T17:09:55.515Z,48.70
2022-08-04T17:14:03.722Z,48.30
2022-08-04T17:18:03.969Z,48.80
2022-08-04T17:21:45.139Z,48.50
2022-08-04T17:25:51.901Z,48.70
2022-08-04T17:29:44.211Z,49.10
2022-08-04T17:33:54.857Z,48.70
2022-08-04T17:37:38.815Z,49.10
2022-08-04T17:41:30.425Z,49.10
2022-08-04T17:45:50.721Z,49.30
2022-08-04T17:49:25.051Z,50.00
2022-08-04T17:53:11.815Z,49.20
2022-08-04T17:57:00.034Z,50.10
2022-08-04T18:00:42.249Z,49.00
2022-08-04T18:05:06.134Z,48.10
2022-08-04T18:08:58.812Z,49.10
2022-08-04T18:12:43.441Z,48.50
2022-08-04T18:16:27.387Z,48.30
2022-08-04T18:20:14.453Z,48.70
2022-08-04T18:23:57.839Z,49.10
2022-08-04T18:27:50.398Z,49.40
2022-08-04T18:31:35.043Z,49.50
2022-08-04T18:35:18.466Z,49.50
2022-08-04T18:39:12.151Z,50.00
2022-08-04T18:42:56.923Z,50.60
2022-08-04T18:46:38.942Z,51.70
2022-08-04T18:51:11.027Z,52.10
2022-08-04T18:54:36.847Z,52.00
2022-08-04T18:58:27.257Z,52.50
2022-08-04T19:02:16.307Z,53.10
2022-08-04T19:05:59.202Z,53.50
2022-08-04T19:09:51.933Z,53.90
2022-08-04T19:13:35.048Z,54.20
2022-08-04T19:17:17.195Z,55.20
2022-08-04T19:21:19.597Z,55.90
2022-08-04T19:25:41.448Z,57.00
2022-08-04T19:29:23.764Z,57.20
2022-08-04T19:33:19.598Z,57.70
2022-08-04T19:37:07.526Z,58.20
2022-08-04T19:40:52.577Z,58.50
2022-08-04T19:44:35.062Z,59.00
2022-08-04T19:48:30.382Z,59.50
2022-08-04T19:52:12.604Z,59.80
2022-08-04T19:55:54.666Z,60.50
2022-08-04T19:59:36.656Z,61.00
2022-08-04T20:04:09.642Z,61.50
2022-08-04T20:07:33.299Z,62.10
2022-08-04T20:11:17.430Z,62.60
2022-08-04T20:15:01.643Z,62.90
2022-08-04T20:18:55.843Z,63.50
2022-08-04T20:22:52.278Z,64.10
2022-08-04T20:26:35.316Z,64.40
2022-08-04T20:30:19.006Z,65.20
2022-08-04T20:34:01.357Z,65.20
2022-08-04T20:37:55.067Z,65.80
2022-08-04T20:41:44.967Z,66.20
2022-08-04T20:45:55.914Z,66.40
2022-08-04T20:49:35.212Z,66.80
2022-08-04T20:53:20.122Z,67.20
2022-08-04T20:57:14.926Z,67.20
2022-08-04T21:00:59.034Z,67.40
2022-08-04T21:04:48.536Z,67.40
2022-08-04T21:08:30.815Z,67.60
2022-08-04T21:12:17.063Z,67.70
2022-08-04T21:16:10.607Z,67.80
2022-08-04T21:20:13.919Z,68.00
2022-08-04T21:23:56.041Z,68.30
2022-08-04T21:27:39.583Z,68.60
2022-08-04T21:31:22.293Z,68.80
2022-08-04T21:35:05.401Z,69.50
2022-08-04T21:38:52.762Z,69.60
2022-08-04T21:42:34.682Z,70.10
2022-08-04T21:46:16.642Z,70.50
2022-08-04T21:50:02.071Z,70.60
2022-08-04T21:53:46.562Z,70.80
2022-08-04T21:57:30.543Z,71.00
2022-08-04T22:01:14.413Z,68.50
2022-08-04T22:05:16.367Z,71.50
2022-08-04T22:08:58.415Z,71.60
2022-08-04T22:12:40.355Z,71.80
2022-08-04T22:16:26.339Z,72.00
2022-08-04T22:20:27.898Z,72.30
2022-08-04T22:24:13.819Z,73.20
2022-08-04T22:28:07.885Z,72.70
2022-08-04T22:31:56.360Z,72.70
2022-08-04T22:35:48.930Z,72.70
2022-08-04T22:39:31.585Z,72.00
2022-08-04T22:43:32.398Z,72.00
2022-08-04T22:47:20.451Z,71.80
2022-08-04T22:51:07.245Z,71.50
2022-08-04T22:54:49.339Z,71.60
2022-08-04T22:58:33.109Z,71.50
2022-08-04T23:02:15.334Z,71.40
2022-08-04T23:05:57.235Z,71.60
2022-08-04T23:09:51.014Z,71.10
2022-08-04T23:13:33.487Z,70.50
2022-08-04T23:17:15.458Z,70.60
2022-08-04T23:20:57.905Z,70.00
2022-08-04T23:24:39.825Z,69.70
2022-08-04T23:28:23.103Z,70.00
2022-08-04T23:32:06.278Z,69.80
2022-08-04T23:35:48.186Z,69.70
2022-08-04T23:39:42.246Z,70.20
2022-08-04T23:43:49.556Z,69.50
2022-08-04T23:48:16.113Z,69.90
2022-08-04T23:51:39.491Z,69.70
2022-08-04T23:55:21.502Z,69.90
2022-08-04T23:59:04.636Z,70.40
